Terminal Aerodrome Forecast
Issued by NWS Jackson, MS

Home | Current Version | Previous Version | Text Only | Print | Product List | Glossary On
Versions: 1 2 3 4 5 6 7 8 9 10 11 12 13 14 15 16 17 18 19 20 21 22 23 24 25 26 27 28 29 30 31 32
000
FTUS44 KJAN 101736
TAFJAN
TAF
KJAN 101736Z 1018/1118 36015G21KT 3SM -RA BR BKN006
     FM110300 01015G21KT 6SM -RA OVC015
     FM110700 02010KT P6SM BKN015=

USA.gov is the U.S. government's official web portal to all federal, state and local government web resources and services.